sensor_id;sensor_type;location;lat;lon;timestamp;pressure;altitude;pressure_sealevel;temperature;humidity
78144;BME280;67394;52.522;13.622;2023-12-07T00:02:20;101116.22;;;0.28;100.00
78144;BME280;67394;52.522;13.622;2023-12-07T00:04:47;101116.22;;;0.28;100.00
78144;BME280;67394;52.522;13.622;2023-12-07T00:07:14;101113.75;;;0.30;100.00
78144;BME280;67394;52.522;13.622;2023-12-07T00:09:40;101121.25;;;0.28;100.00
78144;BME280;67394;52.522;13.622;2023-12-07T00:12:07;101125.59;;;0.31;100.00
78144;BME280;67394;52.522;13.622;2023-12-07T00:14:34;101127.16;;;0.29;100.00
78144;BME280;67394;52.522;13.622;2023-12-07T00:17:01;101126.38;;;0.30;100.00
78144;BME280;67394;52.522;13.622;2023-12-07T00:19:27;101126.38;;;0.30;100.00
78144;BME280;67394;52.522;13.622;2023-12-07T00:21:53;101127.16;;;0.29;100.00
78144;BME280;67394;52.522;13.622;2023-12-07T00:24:20;101128.09;;;0.31;100.00
78144;BME280;67394;52.522;13.622;2023-12-07T00:26:47;101128.03;;;0.29;100.00
78144;BME280;67394;52.522;13.622;2023-12-07T00:29:13;101129.97;;;0.35;100.00
78144;BME280;67394;52.522;13.622;2023-12-07T00:31:39;101130.03;;;0.36;100.00
78144;BME280;67394;52.522;13.622;2023-12-07T00:34:06;101122.41;;;0.35;100.00
78144;BME280;67394;52.522;13.622;2023-12-07T00:36:32;101121.44;;;0.33;100.00
78144;BME280;67394;52.522;13.622;2023-12-07T00:38:59;101127.25;;;0.30;100.00
78144;BME280;67394;52.522;13.622;2023-12-07T00:41:25;101129.81;;;0.32;100.00
78144;BME280;67394;52.522;13.622;2023-12-07T00:43:52;101135.78;;;0.34;100.00
78144;BME280;67394;52.522;13.622;2023-12-07T00:46:18;101137.53;;;0.35;100.00
78144;BME280;67394;52.522;13.622;2023-12-07T00:48:45;101135.00;;;0.35;100.00
78144;BME280;67394;52.522;13.622;2023-12-07T00:51:12;101137.53;;;0.35;100.00
78144;BME280;67394;52.522;13.622;2023-12-07T00:53:38;101138.38;;;0.35;100.00
78144;BME280;67394;52.522;13.622;2023-12-07T00:56:05;101135.00;;;0.35;100.00
78144;BME280;67394;52.522;13.622;2023-12-07T00:58:32;101144.28;;;0.36;100.00
78144;BME280;67394;52.522;13.622;2023-12-07T01:01:00;101143.44;;;0.35;100.00
78144;BME280;67394;52.522;13.622;2023-12-07T01:03:26;101141.69;;;0.34;100.00
78144;BME280;67394;52.522;13.622;2023-12-07T01:05:53;101136.56;;;0.33;100.00
78144;BME280;67394;52.522;13.622;2023-12-07T01:08:20;101136.53;;;0.31;100.00
78144;BME280;67394;52.522;13.622;2023-12-07T01:10:46;101143.28;;;0.32;100.00
78144;BME280;67394;52.522;13.622;2023-12-07T01:13:13;101147.59;;;0.35;100.00
78144;BME280;67394;52.522;13.622;2023-12-07T01:15:39;101145.00;;;0.33;100.00
78144;BME280;67394;52.522;13.622;2023-12-07T01:18:06;101153.50;;;0.35;100.00
78144;BME280;67394;52.522;13.622;2023-12-07T01:20:32;101160.22;;;0.35;100.00
78144;BME280;67394;52.522;13.622;2023-12-07T01:22:59;101167.78;;;0.35;100.00
78144;BME280;67394;52.522;13.622;2023-12-07T01:25:26;101175.41;;;0.36;100.00
78144;BME280;67394;52.522;13.622;2023-12-07T01:27:52;101180.38;;;0.35;100.00
78144;BME280;67394;52.522;13.622;2023-12-07T01:30:19;101183.59;;;0.32;100.00
78144;BME280;67394;52.522;13.622;2023-12-07T01:32:46;101182.75;;;0.32;100.00
78144;BME280;67394;52.522;13.622;2023-12-07T01:35:12;101191.31;;;0.35;100.00
78144;BME280;67394;52.522;13.622;2023-12-07T01:37:39;101185.41;;;0.35;100.00
78144;BME280;67394;52.522;13.622;2023-12-07T01:40:06;101196.44;;;0.37;100.00
78144;BME280;67394;52.522;13.622;2023-12-07T01:42:33;101192.34;;;0.39;100.00
78144;BME280;67394;52.522;13.622;2023-12-07T01:44:59;101193.13;;;0.38;100.00
78144;BME280;67394;52.522;13.622;2023-12-07T01:47:26;101191.50;;;0.39;100.00
78144;BME280;67394;52.522;13.622;2023-12-07T01:49:53;101193.84;;;0.35;100.00
78144;BME280;67394;52.522;13.622;2023-12-07T01:52:20;101197.31;;;0.38;100.00
78144;BME280;67394;52.522;13.622;2023-12-07T01:54:49;101196.38;;;0.35;100.00
78144;BME280;67394;52.522;13.622;2023-12-07T01:57:16;101200.53;;;0.35;100.00
78144;BME280;67394;52.522;13.622;2023-12-07T01:59:42;101199.59;;;0.33;100.00
78144;BME280;67394;52.522;13.622;2023-12-07T02:02:09;101201.41;;;0.35;100.00
78144;BME280;67394;52.522;13.622;2023-12-07T02:04:35;101211.56;;;0.37;100.00
78144;BME280;67394;52.522;13.622;2023-12-07T02:07:03;101215.50;;;0.32;100.00
78144;BME280;67394;52.522;13.622;2023-12-07T02:09:31;101209.69;;;0.33;100.00
78144;BME280;67394;52.522;13.622;2023-12-07T02:11:58;101207.31;;;0.36;100.00
78144;BME280;67394;52.522;13.622;2023-12-07T02:14:25;101212.38;;;0.36;100.00
78144;BME280;67394;52.522;13.622;2023-12-07T02:17:03;101209.69;;;0.33;100.00
78144;BME280;67394;52.522;13.622;2023-12-07T02:22:02;101208.09;;;0.35;100.00
78144;BME280;67394;52.522;13.622;2023-12-07T02:24:33;101212.19;;;0.33;100.00
78144;BME280;67394;52.522;13.622;2023-12-07T02:27:03;101209.75;;;0.34;100.00
78144;BME280;67394;52.522;13.622;2023-12-07T02:29:30;101205.50;;;0.33;100.00
78144;BME280;67394;52.522;13.622;2023-12-07T02:31:56;101208.91;;;0.34;100.00
78144;BME280;67394;52.522;13.622;2023-12-07T02:34:23;101203.78;;;0.32;100.00
78144;BME280;67394;52.522;13.622;2023-12-07T02:36:50;101205.59;;;0.35;100.00
78144;BME280;67394;52.522;13.622;2023-12-07T02:39:20;101208.81;;;0.32;100.00
78144;BME280;67394;52.522;13.622;2023-12-07T02:41:47;101208.19;;;0.36;100.00
78144;BME280;67394;52.522;13.622;2023-12-07T02:44:15;101213.94;;;0.34;100.00
78144;BME280;67394;52.522;13.622;2023-12-07T02:46:42;101214.72;;;0.33;100.00
78144;BME280;67394;52.522;13.622;2023-12-07T02:49:11;101218.84;;;0.31;100.00
78144;BME280;67394;52.522;13.622;2023-12-07T02:51:38;101223.06;;;0.32;100.00
78144;BME280;67394;52.522;13.622;2023-12-07T02:54:05;101223.06;;;0.32;100.00
78144;BME280;67394;52.522;13.622;2023-12-07T02:56:31;101224.81;;;0.33;100.00
78144;BME280;67394;52.522;13.622;2023-12-07T02:58:58;101228.28;;;0.35;100.00
78144;BME280;67394;52.522;13.622;2023-12-07T03:01:25;101243.31;;;0.33;100.00
78144;BME280;67394;52.522;13.622;2023-12-07T03:03:51;101231.50;;;0.32;100.00
78144;BME280;67394;52.522;13.622;2023-12-07T03:06:18;101241.44;;;0.29;100.00
78144;BME280;67394;52.522;13.622;2023-12-07T03:08:44;101239.00;;;0.31;100.00
78144;BME280;67394;52.522;13.622;2023-12-07T03:11:11;101239.88;;;0.31;100.00
78144;BME280;67394;52.522;13.622;2023-12-07T03:13:37;101243.19;;;0.30;100.00
78144;BME280;67394;52.522;13.622;2023-12-07T03:16:08;101248.28;;;0.32;100.00
78144;BME280;67394;52.522;13.622;2023-12-07T03:18:36;101248.28;;;0.32;100.00
78144;BME280;67394;52.522;13.622;2023-12-07T03:21:03;101243.22;;;0.32;100.00
78144;BME280;67394;52.522;13.622;2023-12-07T03:23:29;101242.44;;;0.33;100.00
78144;BME280;67394;52.522;13.622;2023-12-07T03:25:56;101248.28;;;0.32;100.00
78144;BME280;67394;52.522;13.622;2023-12-07T03:28:22;101248.34;;;0.33;100.00
78144;BME280;67394;52.522;13.622;2023-12-07T03:30:49;101255.22;;;0.36;100.00
78144;BME280;67394;52.522;13.622;2023-12-07T03:33:15;101255.84;;;0.32;100.00
78144;BME280;67394;52.522;13.622;2023-12-07T03:35:42;101255.84;;;0.32;100.00
78144;BME280;67394;52.522;13.622;2023-12-07T03:38:08;101252.78;;;0.38;100.00
78144;BME280;67394;52.522;13.622;2023-12-07T03:40:35;101258.59;;;0.36;100.00
78144;BME280;67394;52.522;13.622;2023-12-07T03:43:02;101256.88;;;0.35;100.00
78144;BME280;67394;52.522;13.622;2023-12-07T03:45:28;101254.34;;;0.35;100.00
78144;BME280;67394;52.522;13.622;2023-12-07T03:47:55;101256.94;;;0.37;100.00
78144;BME280;67394;52.522;13.622;2023-12-07T03:50:22;101263.72;;;0.38;100.00
78144;BME280;67394;52.522;13.622;2023-12-07T03:52:48;101270.44;;;0.38;100.00
78144;BME280;67394;52.522;13.622;2023-12-07T03:55:15;101271.13;;;0.35;100.00
78144;BME280;67394;52.522;13.622;2023-12-07T03:57:43;101273.66;;;0.35;100.00
78144;BME280;67394;52.522;13.622;2023-12-07T04:00:11;101272.00;;;0.35;100.00
78144;BME280;67394;52.522;13.622;2023-12-07T04:02:37;101279.56;;;0.35;100.00
78144;BME280;67394;52.522;13.622;2023-12-07T04:05:04;101270.25;;;0.34;100.00
78144;BME280;67394;52.522;13.622;2023-12-07T04:07:31;101280.44;;;0.36;100.00
78144;BME280;67394;52.522;13.622;2023-12-07T04:09:57;101268.59;;;0.35;100.00
78144;BME280;67394;52.522;13.622;2023-12-07T04:12:24;101266.78;;;0.32;100.00
78144;BME280;67394;52.522;13.622;2023-12-07T04:14:51;101267.66;;;0.33;100.00
78144;BME280;67394;52.522;13.622;2023-12-07T04:17:17;101265.31;;;0.36;100.00
78144;BME280;67394;52.522;13.622;2023-12-07T04:19:44;101272.16;;;0.39;100.00
78144;BME280;67394;52.522;13.622;2023-12-07T04:22:11;101271.28;;;0.38;100.00
78144;BME280;67394;52.522;13.622;2023-12-07T04:24:38;101273.66;;;0.35;100.00
78144;BME280;67394;52.522;13.622;2023-12-07T04:27:04;101278.69;;;0.35;100.00
78144;BME280;67394;52.522;13.622;2023-12-07T04:29:31;101277.81;;;0.34;100.00
78144;BME280;67394;52.522;13.622;2023-12-07T04:31:57;101276.25;;;0.36;100.00
78144;BME280;67394;52.522;13.622;2023-12-07T04:34:24;101280.44;;;0.36;100.00
78144;BME280;67394;52.522;13.622;2023-12-07T04:36:51;101278.00;;;0.38;100.00
78144;BME280;67394;52.522;13.622;2023-12-07T04:39:17;101280.44;;;0.36;100.00
78144;BME280;67394;52.522;13.622;2023-12-07T04:41:44;101290.44;;;0.34;100.00
78144;BME280;67394;52.522;13.622;2023-12-07T04:44:10;101288.84;;;0.36;100.00
78144;BME280;67394;52.522;13.622;2023-12-07T04:46:37;101291.47;;;0.38;100.00
78144;BME280;67394;52.522;13.622;2023-12-07T04:49:04;101298.16;;;0.38;100.00
78144;BME280;67394;52.522;13.622;2023-12-07T04:51:31;101302.34;;;0.37;100.00
78144;BME280;67394;52.522;13.622;2023-12-07T04:53:57;101307.63;;;0.42;100.00
78144;BME280;67394;52.522;13.622;2023-12-07T04:56:39;101305.72;;;0.38;100.00
78144;BME280;67394;52.522;13.622;2023-12-07T04:59:06;101309.91;;;0.37;100.00
78144;BME280;67394;52.522;13.622;2023-12-07T05:01:33;101312.41;;;0.37;100.00
78144;BME280;67394;52.522;13.622;2023-12-07T05:03:59;101312.41;;;0.37;100.00
78144;BME280;67394;52.522;13.622;2023-12-07T05:06:26;101311.47;;;0.35;100.00
78144;BME280;67394;52.522;13.622;2023-12-07T05:08:53;101324.16;;;0.36;100.00
78144;BME280;67394;52.522;13.622;2023-12-07T05:11:19;101314.78;;;0.34;100.00
78144;BME280;67394;52.522;13.622;2023-12-07T05:13:46;101323.19;;;0.34;100.00
78144;BME280;67394;52.522;13.622;2023-12-07T05:16:12;101321.53;;;0.35;100.00
78144;BME280;67394;52.522;13.622;2023-12-07T05:18:39;101320.84;;;0.38;100.00
78144;BME280;67394;52.522;13.622;2023-12-07T05:21:06;101321.63;;;0.36;100.00
78144;BME280;67394;52.522;13.622;2023-12-07T05:23:33;101320.16;;;0.40;100.00
78144;BME280;67394;52.522;13.622;2023-12-07T05:26:04;101317.53;;;0.39;100.00
78144;BME280;67394;52.522;13.622;2023-12-07T05:28:31;101316.59;;;0.36;100.00
78144;BME280;67394;52.522;13.622;2023-12-07T05:30:57;101319.97;;;0.37;100.00
78144;BME280;67394;52.522;13.622;2023-12-07T05:33:24;101312.41;;;0.37;100.00
78144;BME280;67394;52.522;13.622;2023-12-07T05:35:51;101319.19;;;0.38;100.00
78144;BME280;67394;52.522;13.622;2023-12-07T05:38:17;101317.63;;;0.40;100.00
78144;BME280;67394;52.522;13.622;2023-12-07T05:40:44;101320.94;;;0.39;100.00
78144;BME280;67394;52.522;13.622;2023-12-07T05:43:11;101327.72;;;0.40;100.00
78144;BME280;67394;52.522;13.622;2023-12-07T05:45:37;101324.25;;;0.38;100.00
78144;BME280;67394;52.522;13.622;2023-12-07T05:48:04;101325.03;;;0.37;100.00
78144;BME280;67394;52.522;13.622;2023-12-07T05:50:31;101322.50;;;0.37;100.00
78144;BME280;67394;52.522;13.622;2023-12-07T05:52:58;101320.06;;;0.39;100.00
78144;BME280;67394;52.522;13.622;2023-12-07T05:55:24;101318.41;;;0.39;100.00
78144;BME280;67394;52.522;13.622;2023-12-07T05:57:51;101321.78;;;0.40;100.00
78144;BME280;67394;52.522;13.622;2023-12-07T06:00:18;101321.00;;;0.41;100.00
78144;BME280;67394;52.522;13.622;2023-12-07T06:02:45;101316.97;;;0.44;100.00
78144;BME280;67394;52.522;13.622;2023-12-07T06:05:12;101320.28;;;0.43;100.00
78144;BME280;67394;52.522;13.622;2023-12-07T06:07:38;101323.66;;;0.44;100.00
78144;BME280;67394;52.522;13.622;2023-12-07T06:10:05;101327.84;;;0.43;100.00
78144;BME280;67394;52.522;13.622;2023-12-07T06:12:32;101330.34;;;0.43;100.00
78144;BME280;67394;52.522;13.622;2023-12-07T06:14:59;101327.78;;;0.42;100.00
78144;BME280;67394;52.522;13.622;2023-12-07T06:17:25;101329.56;;;0.44;100.00
78144;BME280;67394;52.522;13.622;2023-12-07T06:19:52;101335.56;;;0.46;100.00
78144;BME280;67394;52.522;13.622;2023-12-07T06:22:19;101337.13;;;0.44;100.00
78144;BME280;67394;52.522;13.622;2023-12-07T06:24:46;101337.13;;;0.44;100.00
78144;BME280;67394;52.522;13.622;2023-12-07T06:27:12;101342.97;;;0.43;100.00
78144;BME280;67394;52.522;13.622;2023-12-07T06:29:38;101348.97;;;0.45;100.00
78144;BME280;67394;52.522;13.622;2023-12-07T06:32:05;101353.13;;;0.45;100.00
78144;BME280;67394;52.522;13.622;2023-12-07T06:34:32;101349.75;;;0.44;100.00
78144;BME280;67394;52.522;13.622;2023-12-07T06:36:58;101359.75;;;0.43;100.00
78144;BME280;67394;52.522;13.622;2023-12-07T06:39:25;101358.09;;;0.43;100.00
78144;BME280;67394;52.522;13.622;2023-12-07T06:41:51;101358.09;;;0.43;100.00
78144;BME280;67394;52.522;13.622;2023-12-07T06:44:18;101359.91;;;0.46;100.00
78144;BME280;67394;52.522;13.622;2023-12-07T06:46:45;101368.34;;;0.46;100.00
78144;BME280;67394;52.522;13.622;2023-12-07T06:49:11;101373.41;;;0.46;100.00
78144;BME280;67394;52.522;13.622;2023-12-07T06:51:38;101372.53;;;0.46;100.00
78144;BME280;67394;52.522;13.622;2023-12-07T06:54:04;101377.66;;;0.47;100.00
78144;BME280;67394;52.522;13.622;2023-12-07T06:56:31;101374.97;;;0.44;100.00
78144;BME280;67394;52.522;13.622;2023-12-07T06:58:57;101381.75;;;0.45;100.00
78144;BME280;67394;52.522;13.622;2023-12-07T07:01:24;101383.47;;;0.46;100.00
78144;BME280;67394;52.522;13.622;2023-12-07T07:03:51;101386.78;;;0.45;100.00
78144;BME280;67394;52.522;13.622;2023-12-07T07:06:18;101382.53;;;0.44;100.00
78144;BME280;67394;52.522;13.622;2023-12-07T07:08:44;101384.25;;;0.45;100.00
78144;BME280;67394;52.522;13.622;2023-12-07T07:11:14;101380.88;;;0.45;100.00
78144;BME280;67394;52.522;13.622;2023-12-07T07:13:40;101383.47;;;0.46;100.00
78144;BME280;67394;52.522;13.622;2023-12-07T07:16:08;101385.22;;;0.47;100.00
78144;BME280;67394;52.522;13.622;2023-12-07T07:18:37;101387.81;;;0.49;100.00
78144;BME280;67394;52.522;13.622;2023-12-07T07:21:04;101389.47;;;0.48;100.00
78144;BME280;67394;52.522;13.622;2023-12-07T07:23:31;101381.91;;;0.48;100.00
78144;BME280;67394;52.522;13.622;2023-12-07T07:25:57;101400.44;;;0.49;100.00
78144;BME280;67394;52.522;13.622;2023-12-07T07:28:24;101389.38;;;0.47;100.00
78144;BME280;67394;52.522;13.622;2023-12-07T07:30:51;101390.44;;;0.50;100.00
78144;BME280;67394;52.522;13.622;2023-12-07T07:33:17;101391.38;;;0.52;100.00
78144;BME280;67394;52.522;13.622;2023-12-07T07:35:44;101385.50;;;0.53;100.00
78144;BME280;67394;52.522;13.622;2023-12-07T07:38:11;101390.56;;;0.53;100.00
78144;BME280;67394;52.522;13.622;2023-12-07T07:40:37;101383.81;;;0.52;100.00
78144;BME280;67394;52.522;13.622;2023-12-07T07:43:04;101391.38;;;0.52;100.00
78144;BME280;67394;52.522;13.622;2023-12-07T07:45:30;101392.94;;;0.50;100.00
78144;BME280;67394;52.522;13.622;2023-12-07T07:47:57;101391.38;;;0.52;100.00
78144;BME280;67394;52.522;13.622;2023-12-07T07:50:24;101393.94;;;0.54;100.00
78144;BME280;67394;52.522;13.622;2023-12-07T07:52:50;101393.25;;;0.56;100.00
78144;BME280;67394;52.522;13.622;2023-12-07T07:55:17;101386.56;;;0.57;100.00
78144;BME280;67394;52.522;13.622;2023-12-07T07:57:44;101403.59;;;0.61;100.00
78144;BME280;67394;52.522;13.622;2023-12-07T08:00:10;101396.88;;;0.61;100.00
78144;BME280;67394;52.522;13.622;2023-12-07T08:02:37;101399.41;;;0.61;100.00
78144;BME280;67394;52.522;13.622;2023-12-07T08:05:04;101399.16;;;0.57;100.00
78144;BME280;67394;52.522;13.622;2023-12-07T08:07:30;101407.75;;;0.60;100.00
78144;BME280;67394;52.522;13.622;2023-12-07T08:09:57;101403.59;;;0.61;100.00
78144;BME280;67394;52.522;13.622;2023-12-07T08:12:24;101401.94;;;0.61;100.00
78144;BME280;67394;52.522;13.622;2023-12-07T08:14:50;101402.16;;;0.66;100.00
78144;BME280;67394;52.522;13.622;2023-12-07T08:17:17;101405.41;;;0.63;100.00
78144;BME280;67394;52.522;13.622;2023-12-07T08:19:44;101402.88;;;0.63;100.00
78144;BME280;67394;52.522;13.622;2023-12-07T08:22:10;101407.19;;;0.66;100.00
78144;BME280;67394;52.522;13.622;2023-12-07T08:24:39;101401.44;;;0.68;100.00
78144;BME280;67394;52.522;13.622;2023-12-07T08:27:05;101401.44;;;0.68;100.00
78144;BME280;67394;52.522;13.622;2023-12-07T08:29:32;101406.56;;;0.70;100.00
78144;BME280;67394;52.522;13.622;2023-12-07T08:31:58;101410.84;;;0.71;100.00
78144;BME280;67394;52.522;13.622;2023-12-07T08:34:25;101411.63;;;0.70;100.00
78144;BME280;67394;52.522;13.622;2023-12-07T08:36:52;101416.84;;;0.73;100.00
78144;BME280;67394;52.522;13.622;2023-12-07T08:39:19;101413.56;;;0.76;100.00
78144;BME280;67394;52.522;13.622;2023-12-07T08:41:45;101416.75;;;0.71;100.00
78144;BME280;67394;52.522;13.622;2023-12-07T08:44:12;101421.78;;;0.71;100.00
78144;BME280;67394;52.522;13.622;2023-12-07T08:46:39;101421.78;;;0.71;100.00
78144;BME280;67394;52.522;13.622;2023-12-07T08:49:05;101429.28;;;0.70;100.00
78144;BME280;67394;52.522;13.622;2023-12-07T08:51:32;101431.19;;;0.74;100.00
78144;BME280;67394;52.522;13.622;2023-12-07T08:53:59;101428.72;;;0.76;100.00
78144;BME280;67394;52.522;13.622;2023-12-07T08:56:25;101430.44;;;0.77;100.00
78144;BME280;67394;52.522;13.622;2023-12-07T08:58:52;101434.63;;;0.76;100.00
78144;BME280;67394;52.522;13.622;2023-12-07T09:01:19;101437.22;;;0.78;100.00
78144;BME280;67394;52.522;13.622;2023-12-07T09:03:57;101430.44;;;0.77;100.00
78144;BME280;67394;52.522;13.622;2023-12-07T09:06:24;101436.69;;;0.83;100.00
78144;BME280;67394;52.522;13.622;2023-12-07T09:08:51;101439.34;;;0.86;100.00
78144;BME280;67394;52.522;13.622;2023-12-07T09:11:18;101445.13;;;0.84;100.00
78144;BME280;67394;52.522;13.622;2023-12-07T09:13:45;101435.91;;;0.84;100.00
78144;BME280;67394;52.522;13.622;2023-12-07T09:16:12;101437.56;;;0.84;100.00
78144;BME280;67394;52.522;13.622;2023-12-07T09:18:39;101445.25;;;0.87;100.00
78144;BME280;67394;52.522;13.622;2023-12-07T09:21:06;101442.13;;;0.91;100.00
78144;BME280;67394;52.522;13.622;2023-12-07T09:23:32;101444.81;;;0.94;100.00
78144;BME280;67394;52.522;13.622;2023-12-07T09:25:59;101435.63;;;0.96;100.00
78144;BME280;67394;52.522;13.622;2023-12-07T09:28:25;101437.69;;;1.03;100.00
78144;BME280;67394;52.522;13.622;2023-12-07T09:30:52;101438.66;;;1.05;100.00
78144;BME280;67394;52.522;13.622;2023-12-07T09:33:19;101433.91;;;1.11;100.00
78144;BME280;67394;52.522;13.622;2023-12-07T09:35:47;101440.75;;;1.14;100.00
78144;BME280;67394;52.522;13.622;2023-12-07T09:38:14;101438.94;;;1.11;100.00
78144;BME280;67394;52.522;13.622;2023-12-07T09:40:40;101444.25;;;1.16;100.00
78144;BME280;67394;52.522;13.622;2023-12-07T09:43:07;101447.47;;;1.13;100.00
78144;BME280;67394;52.522;13.622;2023-12-07T09:45:34;101449.03;;;1.11;100.00
78144;BME280;67394;52.522;13.622;2023-12-07T09:48:01;101445.91;;;1.15;100.00
78144;BME280;67394;52.522;13.622;2023-12-07T09:50:28;101447.63;;;1.16;100.00
78144;BME280;67394;52.522;13.622;2023-12-07T09:52:57;101449.41;;;1.19;100.00
78144;BME280;67394;52.522;13.622;2023-12-07T09:55:34;101453.69;;;1.20;100.00
78144;BME280;67394;52.522;13.622;2023-12-07T09:58:04;101453.50;;;1.17;100.00
78144;BME280;67394;52.522;13.622;2023-12-07T10:00:31;101459.44;;;1.17;100.00
78144;BME280;67394;52.522;13.622;2023-12-07T10:02:57;101462.78;;;1.16;100.00
78144;BME280;67394;52.522;13.622;2023-12-07T10:05:24;101466.09;;;1.15;100.00
78144;BME280;67394;52.522;13.622;2023-12-07T10:07:52;101460.09;;;1.13;100.00
78144;BME280;67394;52.522;13.622;2023-12-07T10:10:19;101464.34;;;1.14;100.00
78144;BME280;67394;52.522;13.622;2023-12-07T10:12:56;101467.50;;;1.10;100.00
78144;BME280;67394;52.522;13.622;2023-12-07T10:15:25;101462.38;;;1.08;100.00
78144;BME280;67394;52.522;13.622;2023-12-07T10:20:21;101446.44;;;1.09;100.00
78144;BME280;67394;52.522;13.622;2023-12-07T10:23:07;101454.97;;;1.12;100.00
78144;BME280;67394;52.522;13.622;2023-12-07T10:25:42;101454.09;;;1.11;100.00
78144;BME280;67394;52.522;13.622;2023-12-07T10:28:09;101454.97;;;1.12;100.00
78144;BME280;67394;52.522;13.622;2023-12-07T10:30:37;101454.97;;;1.12;100.00
78144;BME280;67394;52.522;13.622;2023-12-07T10:33:09;101455.13;;;1.15;100.00
78144;BME280;67394;52.522;13.622;2023-12-07T10:35:39;101449.34;;;1.17;100.00
78144;BME280;67394;52.522;13.622;2023-12-07T10:38:07;101446.88;;;1.19;100.00
78144;BME280;67394;52.522;13.622;2023-12-07T10:40:34;101446.03;;;1.18;100.00
78144;BME280;67394;52.522;13.622;2023-12-07T10:43:06;101441.94;;;1.20;100.00
78144;BME280;67394;52.522;13.622;2023-12-07T10:45:34;101449.66;;;1.23;100.00
78144;BME280;67394;52.522;13.622;2023-12-07T10:48:12;101447.13;;;1.23;100.00
78144;BME280;67394;52.522;13.622;2023-12-07T10:50:42;101448.94;;;1.26;100.00
78144;BME280;67394;52.522;13.622;2023-12-07T10:53:14;101445.63;;;1.27;100.00
78144;BME280;67394;52.522;13.622;2023-12-07T10:55:52;101444.03;;;1.29;100.00
78144;BME280;67394;52.522;13.622;2023-12-07T10:58:19;101445.69;;;1.28;100.00
78144;BME280;67394;52.522;13.622;2023-12-07T11:00:48;101445.94;;;1.33;100.00
78144;BME280;67394;52.522;13.622;2023-12-07T11:03:16;101441.81;;;1.35;100.00
78144;BME280;67394;52.522;13.622;2023-12-07T11:05:52;101430.63;;;1.30;100.00
78144;BME280;67394;52.522;13.622;2023-12-07T11:08:28;101440.81;;;1.31;100.00
78144;BME280;67394;52.522;13.622;2023-12-07T11:13:59;101434.81;;;1.29;100.00
78144;BME280;67394;52.522;13.622;2023-12-07T11:16:37;101436.38;;;1.27;100.00
78144;BME280;67394;52.522;13.622;2023-12-07T11:19:04;101434.66;;;1.26;100.00
78144;BME280;67394;52.522;13.622;2023-12-07T11:21:35;101433.94;;;1.29;100.00
78144;BME280;67394;52.522;13.622;2023-12-07T11:24:01;101437.31;;;1.29;100.00
78144;BME280;67394;52.522;13.622;2023-12-07T11:26:29;101434.00;;;1.30;100.00
78144;BME280;67394;52.522;13.622;2023-12-07T11:28:56;101430.53;;;1.28;100.00
78144;BME280;67394;52.522;13.622;2023-12-07T11:31:22;101430.63;;;1.30;100.00
78144;BME280;67394;52.522;13.622;2023-12-07T11:33:49;101426.34;;;1.29;100.00
78144;BME280;67394;52.522;13.622;2023-12-07T11:36:16;101423.13;;;1.31;100.00
78144;BME280;67394;52.522;13.622;2023-12-07T11:41:34;101414.91;;;1.35;100.00
78144;BME280;67394;52.522;13.622;2023-12-07T11:44:01;101424.06;;;1.33;100.00
78144;BME280;67394;52.522;13.622;2023-12-07T11:46:28;101418.22;;;1.34;100.00
78144;BME280;67394;52.522;13.622;2023-12-07T11:48:55;101410.56;;;1.33;100.00
78144;BME280;67394;52.522;13.622;2023-12-07T11:51:21;101410.00;;;1.38;100.00
78144;BME280;67394;52.522;13.622;2023-12-07T11:53:48;101414.19;;;1.38;100.00
78144;BME280;67394;52.522;13.622;2023-12-07T11:56:16;101414.41;;;1.42;100.00
78144;BME280;67394;52.522;13.622;2023-12-07T11:58:44;101412.03;;;1.45;100.00
78144;BME280;67394;52.522;13.622;2023-12-07T12:01:10;101417.09;;;1.45;100.00
78144;BME280;67394;52.522;13.622;2023-12-07T12:03:37;101416.38;;;1.48;100.00
78144;BME280;67394;52.522;13.622;2023-12-07T12:06:06;101410.47;;;1.48;100.00
78144;BME280;67394;52.522;13.622;2023-12-07T12:08:33;101420.63;;;1.49;100.00
78144;BME280;67394;52.522;13.622;2023-12-07T12:11:00;101419.69;;;1.47;100.00
78144;BME280;67394;52.522;13.622;2023-12-07T12:13:27;101418.97;;;1.50;100.00
78144;BME280;67394;52.522;13.622;2023-12-07T12:15:55;101418.69;;;1.43;100.00
78144;BME280;67394;52.522;13.622;2023-12-07T12:18:22;101412.84;;;1.44;100.00
78144;BME280;67394;52.522;13.622;2023-12-07T12:20:50;101418.03;;;1.48;100.00
78144;BME280;67394;52.522;13.622;2023-12-07T12:23:17;101420.41;;;1.44;100.00
78144;BME280;67394;52.522;13.622;2023-12-07T12:25:44;101411.88;;;1.42;100.00
78144;BME280;67394;52.522;13.622;2023-12-07T12:28:15;101414.56;;;1.45;100.00
78144;BME280;67394;52.522;13.622;2023-12-07T12:30:42;101423.66;;;1.42;100.00
78144;BME280;67394;52.522;13.622;2023-12-07T12:33:09;101427.75;;;1.40;100.00
78144;BME280;67394;52.522;13.622;2023-12-07T12:35:35;101426.00;;;1.39;100.00
78144;BME280;67394;52.522;13.622;2023-12-07T12:38:09;101426.00;;;1.39;100.00
78144;BME280;67394;52.522;13.622;2023-12-07T12:40:36;101424.34;;;1.39;100.00
78144;BME280;67394;52.522;13.622;2023-12-07T12:43:03;101422.69;;;1.40;100.00
78144;BME280;67394;52.522;13.622;2023-12-07T12:45:29;101420.97;;;1.39;100.00
78144;BME280;67394;52.522;13.622;2023-12-07T12:47:56;101415.72;;;1.34;100.00
78144;BME280;67394;52.522;13.622;2023-12-07T12:50:37;101428.25;;;1.33;100.00
78144;BME280;67394;52.522;13.622;2023-12-07T12:53:05;101426.59;;;1.33;100.00